sensor_id;sensor_type;location;lat;lon;timestamp;temperature;humidity
38333;DHT22;25748;46.670;14.272;2023-08-30T00:00:06;14.60;90.60
38333;DHT22;25748;46.670;14.272;2023-08-30T00:02:31;14.60;90.70
38333;DHT22;25748;46.670;14.272;2023-08-30T00:05:02;14.60;90.70
38333;DHT22;25748;46.670;14.272;2023-08-30T00:07:27;14.60;90.70
38333;DHT22;25748;46.670;14.272;2023-08-30T00:09:53;14.60;90.70
38333;DHT22;25748;46.670;14.272;2023-08-30T00:12:19;14.60;90.70
38333;DHT22;25748;46.670;14.272;2023-08-30T00:14:44;14.60;90.80
38333;DHT22;25748;46.670;14.272;2023-08-30T00:17:10;14.70;90.90
38333;DHT22;25748;46.670;14.272;2023-08-30T00:19:36;14.70;90.90
38333;DHT22;25748;46.670;14.272;2023-08-30T00:22:01;14.70;90.70
38333;DHT22;25748;46.670;14.272;2023-08-30T00:24:28;14.70;90.90
38333;DHT22;25748;46.670;14.272;2023-08-30T00:26:54;14.70;90.70
38333;DHT22;25748;46.670;14.272;2023-08-30T00:29:20;14.60;90.60
38333;DHT22;25748;46.670;14.272;2023-08-30T00:31:45;14.60;90.60
38333;DHT22;25748;46.670;14.272;2023-08-30T00:34:12;14.60;90.60
38333;DHT22;25748;46.670;14.272;2023-08-30T00:36:38;14.60;90.60
38333;DHT22;25748;46.670;14.272;2023-08-30T00:39:03;14.60;90.70
38333;DHT22;25748;46.670;14.272;2023-08-30T00:41:29;14.70;90.80
38333;DHT22;25748;46.670;14.272;2023-08-30T00:43:55;14.70;90.80
38333;DHT22;25748;46.670;14.272;2023-08-30T00:46:20;14.60;90.60
38333;DHT22;25748;46.670;14.272;2023-08-30T00:48:47;14.60;90.40
38333;DHT22;25748;46.670;14.272;2023-08-30T00:51:13;14.70;90.80
38333;DHT22;25748;46.670;14.272;2023-08-30T00:53:39;14.70;90.80
38333;DHT22;25748;46.670;14.272;2023-08-30T00:56:05;14.70;90.90
38333;DHT22;25748;46.670;14.272;2023-08-30T00:58:31;14.70;90.80
38333;DHT22;25748;46.670;14.272;2023-08-30T01:00:57;14.70;90.70
38333;DHT22;25748;46.670;14.272;2023-08-30T01:03:22;14.70;90.80
38333;DHT22;25748;46.670;14.272;2023-08-30T01:05:48;14.70;90.90
38333;DHT22;25748;46.670;14.272;2023-08-30T01:08:14;14.70;90.80
38333;DHT22;25748;46.670;14.272;2023-08-30T01:11:00;14.70;90.80
38333;DHT22;25748;46.670;14.272;2023-08-30T01:13:30;14.70;90.90
38333;DHT22;25748;46.670;14.272;2023-08-30T01:15:58;14.70;90.80
38333;DHT22;25748;46.670;14.272;2023-08-30T01:18:32;14.70;90.90
38333;DHT22;25748;46.670;14.272;2023-08-30T01:21:01;14.70;90.90
38333;DHT22;25748;46.670;14.272;2023-08-30T01:23:59;14.70;90.90
38333;DHT22;25748;46.670;14.272;2023-08-30T01:26:45;14.70;90.80
38333;DHT22;25748;46.670;14.272;2023-08-30T01:29:16;14.70;90.90
38333;DHT22;25748;46.670;14.272;2023-08-30T01:31:44;14.70;91.00
38333;DHT22;25748;46.670;14.272;2023-08-30T01:34:11;14.70;90.90
38333;DHT22;25748;46.670;14.272;2023-08-30T01:36:39;14.70;90.90
38333;DHT22;25748;46.670;14.272;2023-08-30T01:39:10;14.70;90.90
38333;DHT22;25748;46.670;14.272;2023-08-30T01:41:37;14.70;91.00
38333;DHT22;25748;46.670;14.272;2023-08-30T01:44:05;14.70;90.90
38333;DHT22;25748;46.670;14.272;2023-08-30T01:46:33;14.70;90.80
38333;DHT22;25748;46.670;14.272;2023-08-30T01:49:01;14.70;90.80
38333;DHT22;25748;46.670;14.272;2023-08-30T01:51:28;14.70;91.00
38333;DHT22;25748;46.670;14.272;2023-08-30T01:53:54;14.70;90.90
38333;DHT22;25748;46.670;14.272;2023-08-30T01:56:20;14.70;90.90
38333;DHT22;25748;46.670;14.272;2023-08-30T01:58:46;14.70;90.90
38333;DHT22;25748;46.670;14.272;2023-08-30T02:01:12;14.70;90.90
38333;DHT22;25748;46.670;14.272;2023-08-30T02:03:38;14.60;90.70
38333;DHT22;25748;46.670;14.272;2023-08-30T02:06:09;14.60;90.60
38333;DHT22;25748;46.670;14.272;2023-08-30T02:09:19;14.60;90.70
38333;DHT22;25748;46.670;14.272;2023-08-30T02:11:44;14.50;90.60
38333;DHT22;25748;46.670;14.272;2023-08-30T02:14:13;14.50;90.70
38333;DHT22;25748;46.670;14.272;2023-08-30T02:16:43;14.50;90.90
38333;DHT22;25748;46.670;14.272;2023-08-30T02:19:10;14.50;91.00
38333;DHT22;25748;46.670;14.272;2023-08-30T02:21:36;14.50;91.10
38333;DHT22;25748;46.670;14.272;2023-08-30T02:24:03;14.50;91.10
38333;DHT22;25748;46.670;14.272;2023-08-30T02:26:28;14.50;91.10
38333;DHT22;25748;46.670;14.272;2023-08-30T02:28:54;14.60;91.30
38333;DHT22;25748;46.670;14.272;2023-08-30T02:31:20;14.60;91.10
38333;DHT22;25748;46.670;14.272;2023-08-30T02:33:45;14.60;91.30
38333;DHT22;25748;46.670;14.272;2023-08-30T02:36:11;14.60;91.10
38333;DHT22;25748;46.670;14.272;2023-08-30T02:38:37;14.70;91.40
38333;DHT22;25748;46.670;14.272;2023-08-30T02:41:02;14.60;91.00
38333;DHT22;25748;46.670;14.272;2023-08-30T02:43:28;14.50;90.80
38333;DHT22;25748;46.670;14.272;2023-08-30T02:45:54;14.50;90.70
38333;DHT22;25748;46.670;14.272;2023-08-30T02:48:20;14.50;90.90
38333;DHT22;25748;46.670;14.272;2023-08-30T02:50:46;14.50;91.00
38333;DHT22;25748;46.670;14.272;2023-08-30T02:53:11;14.50;91.10
38333;DHT22;25748;46.670;14.272;2023-08-30T02:55:37;14.50;91.10
38333;DHT22;25748;46.670;14.272;2023-08-30T02:58:03;14.40;91.10
38333;DHT22;25748;46.670;14.272;2023-08-30T03:00:29;14.50;91.30
38333;DHT22;25748;46.670;14.272;2023-08-30T03:02:54;14.60;91.40
38333;DHT22;25748;46.670;14.272;2023-08-30T03:05:20;14.50;91.30
38333;DHT22;25748;46.670;14.272;2023-08-30T03:07:46;14.50;91.20
38333;DHT22;25748;46.670;14.272;2023-08-30T03:10:12;14.50;91.10
38333;DHT22;25748;46.670;14.272;2023-08-30T03:12:38;14.50;91.10
38333;DHT22;25748;46.670;14.272;2023-08-30T03:15:04;14.50;91.10
38333;DHT22;25748;46.670;14.272;2023-08-30T03:17:30;14.50;91.00
38333;DHT22;25748;46.670;14.272;2023-08-30T03:19:56;14.60;91.20
38333;DHT22;25748;46.670;14.272;2023-08-30T03:22:22;14.50;91.00
38333;DHT22;25748;46.670;14.272;2023-08-30T03:24:47;14.50;91.10
38333;DHT22;25748;46.670;14.272;2023-08-30T03:27:15;14.60;91.00
38333;DHT22;25748;46.670;14.272;2023-08-30T03:29:41;14.50;90.80
38333;DHT22;25748;46.670;14.272;2023-08-30T03:32:06;14.40;90.80
38333;DHT22;25748;46.670;14.272;2023-08-30T03:34:32;14.40;90.80
38333;DHT22;25748;46.670;14.272;2023-08-30T03:36:58;14.40;90.80
38333;DHT22;25748;46.670;14.272;2023-08-30T03:39:23;14.40;90.70
38333;DHT22;25748;46.670;14.272;2023-08-30T03:41:50;14.30;90.50
38333;DHT22;25748;46.670;14.272;2023-08-30T03:44:16;14.40;90.90
38333;DHT22;25748;46.670;14.272;2023-08-30T03:46:41;14.40;91.00
38333;DHT22;25748;46.670;14.272;2023-08-30T03:49:07;14.50;91.00
38333;DHT22;25748;46.670;14.272;2023-08-30T03:51:33;14.40;91.00
38333;DHT22;25748;46.670;14.272;2023-08-30T03:53:59;14.40;90.80
38333;DHT22;25748;46.670;14.272;2023-08-30T03:56:25;14.30;90.80
38333;DHT22;25748;46.670;14.272;2023-08-30T03:58:50;14.30;90.50
38333;DHT22;25748;46.670;14.272;2023-08-30T04:01:16;14.30;90.70
38333;DHT22;25748;46.670;14.272;2023-08-30T04:03:41;14.20;90.60
38333;DHT22;25748;46.670;14.272;2023-08-30T04:06:07;14.30;91.00
38333;DHT22;25748;46.670;14.272;2023-08-30T04:08:33;14.40;91.10
38333;DHT22;25748;46.670;14.272;2023-08-30T04:10:59;14.30;90.60
38333;DHT22;25748;46.670;14.272;2023-08-30T04:13:24;14.20;90.60
38333;DHT22;25748;46.670;14.272;2023-08-30T04:15:51;14.20;90.80
38333;DHT22;25748;46.670;14.272;2023-08-30T04:18:17;14.30;90.90
38333;DHT22;25748;46.670;14.272;2023-08-30T04:20:47;14.30;90.90
38333;DHT22;25748;46.670;14.272;2023-08-30T04:23:13;14.20;90.90
38333;DHT22;25748;46.670;14.272;2023-08-30T04:25:40;14.30;91.00
38333;DHT22;25748;46.670;14.272;2023-08-30T04:28:05;14.30;91.00
38333;DHT22;25748;46.670;14.272;2023-08-30T04:30:31;14.30;90.90
38333;DHT22;25748;46.670;14.272;2023-08-30T04:32:57;14.40;91.20
38333;DHT22;25748;46.670;14.272;2023-08-30T04:35:23;14.40;91.20
38333;DHT22;25748;46.670;14.272;2023-08-30T04:37:48;14.40;91.10
38333;DHT22;25748;46.670;14.272;2023-08-30T04:40:14;14.40;91.20
38333;DHT22;25748;46.670;14.272;2023-08-30T04:42:40;14.40;91.30
38333;DHT22;25748;46.670;14.272;2023-08-30T04:45:06;14.50;91.30
38333;DHT22;25748;46.670;14.272;2023-08-30T04:47:32;14.50;91.30
38333;DHT22;25748;46.670;14.272;2023-08-30T04:49:59;14.50;91.00
38333;DHT22;25748;46.670;14.272;2023-08-30T04:52:25;14.50;91.10
38333;DHT22;25748;46.670;14.272;2023-08-30T04:54:51;14.40;90.70
38333;DHT22;25748;46.670;14.272;2023-08-30T04:57:17;14.40;90.70
38333;DHT22;25748;46.670;14.272;2023-08-30T04:59:44;14.40;90.80
38333;DHT22;25748;46.670;14.272;2023-08-30T05:02:10;14.30;90.80
38333;DHT22;25748;46.670;14.272;2023-08-30T05:04:36;14.30;90.90
38333;DHT22;25748;46.670;14.272;2023-08-30T05:07:02;14.30;90.90
38333;DHT22;25748;46.670;14.272;2023-08-30T05:09:29;14.30;90.90
38333;DHT22;25748;46.670;14.272;2023-08-30T05:11:55;14.30;90.90
38333;DHT22;25748;46.670;14.272;2023-08-30T05:14:21;14.30;91.00
38333;DHT22;25748;46.670;14.272;2023-08-30T05:16:46;14.30;91.00
38333;DHT22;25748;46.670;14.272;2023-08-30T05:19:12;14.40;91.30
38333;DHT22;25748;46.670;14.272;2023-08-30T05:21:38;14.30;90.90
38333;DHT22;25748;46.670;14.272;2023-08-30T05:24:04;14.30;90.80
38333;DHT22;25748;46.670;14.272;2023-08-30T05:26:33;14.30;90.80
38333;DHT22;25748;46.670;14.272;2023-08-30T05:28:58;14.30;91.00
38333;DHT22;25748;46.670;14.272;2023-08-30T05:31:24;14.30;91.00
38333;DHT22;25748;46.670;14.272;2023-08-30T05:33:50;14.30;90.90
38333;DHT22;25748;46.670;14.272;2023-08-30T05:36:16;14.30;90.80
38333;DHT22;25748;46.670;14.272;2023-08-30T05:38:42;14.30;91.00
38333;DHT22;25748;46.670;14.272;2023-08-30T05:41:07;14.30;91.00
38333;DHT22;25748;46.670;14.272;2023-08-30T05:43:33;14.40;91.20
38333;DHT22;25748;46.670;14.272;2023-08-30T05:45:59;14.40;91.20
38333;DHT22;25748;46.670;14.272;2023-08-30T05:48:28;14.40;91.20
38333;DHT22;25748;46.670;14.272;2023-08-30T05:50:54;14.50;91.20
38333;DHT22;25748;46.670;14.272;2023-08-30T05:53:20;14.50;91.00
38333;DHT22;25748;46.670;14.272;2023-08-30T05:55:45;14.40;90.90
38333;DHT22;25748;46.670;14.272;2023-08-30T05:58:11;14.30;90.70
38333;DHT22;25748;46.670;14.272;2023-08-30T06:00:37;14.30;90.80
38333;DHT22;25748;46.670;14.272;2023-08-30T06:03:03;14.40;90.90
38333;DHT22;25748;46.670;14.272;2023-08-30T06:05:29;14.30;90.80
38333;DHT22;25748;46.670;14.272;2023-08-30T06:07:55;14.40;90.90
38333;DHT22;25748;46.670;14.272;2023-08-30T06:10:22;14.30;90.80
38333;DHT22;25748;46.670;14.272;2023-08-30T06:12:48;14.40;91.20
38333;DHT22;25748;46.670;14.272;2023-08-30T06:15:14;14.50;91.10
38333;DHT22;25748;46.670;14.272;2023-08-30T06:17:40;14.40;90.70
38333;DHT22;25748;46.670;14.272;2023-08-30T06:20:06;14.40;90.80
38333;DHT22;25748;46.670;14.272;2023-08-30T06:22:33;14.30;90.80
38333;DHT22;25748;46.670;14.272;2023-08-30T06:24:59;14.30;90.90
38333;DHT22;25748;46.670;14.272;2023-08-30T06:27:24;14.40;91.00
38333;DHT22;25748;46.670;14.272;2023-08-30T06:29:50;14.40;90.90
38333;DHT22;25748;46.670;14.272;2023-08-30T06:32:16;14.40;90.90
38333;DHT22;25748;46.670;14.272;2023-08-30T06:34:42;14.40;91.00
38333;DHT22;25748;46.670;14.272;2023-08-30T06:37:08;14.40;90.90
38333;DHT22;25748;46.670;14.272;2023-08-30T06:39:34;14.40;90.90
38333;DHT22;25748;46.670;14.272;2023-08-30T06:42:02;14.40;90.90
38333;DHT22;25748;46.670;14.272;2023-08-30T06:44:28;14.40;90.90
38333;DHT22;25748;46.670;14.272;2023-08-30T06:46:58;14.50;91.10
38333;DHT22;25748;46.670;14.272;2023-08-30T06:49:24;14.60;91.20
38333;DHT22;25748;46.670;14.272;2023-08-30T06:51:50;14.70;91.10
38333;DHT22;25748;46.670;14.272;2023-08-30T06:54:15;14.60;90.80
38333;DHT22;25748;46.670;14.272;2023-08-30T06:56:56;14.70;91.10
38333;DHT22;25748;46.670;14.272;2023-08-30T06:59:21;14.70;90.80
38333;DHT22;25748;46.670;14.272;2023-08-30T07:01:47;14.70;90.70
38333;DHT22;25748;46.670;14.272;2023-08-30T07:04:13;14.80;91.00
38333;DHT22;25748;46.670;14.272;2023-08-30T07:06:38;14.90;91.00
38333;DHT22;25748;46.670;14.272;2023-08-30T07:09:04;14.90;90.90
38333;DHT22;25748;46.670;14.272;2023-08-30T07:11:31;14.80;90.40
38333;DHT22;25748;46.670;14.272;2023-08-30T07:13:57;14.80;90.10
38333;DHT22;25748;46.670;14.272;2023-08-30T07:16:23;14.80;90.20
38333;DHT22;25748;46.670;14.272;2023-08-30T07:18:48;14.90;90.20
38333;DHT22;25748;46.670;14.272;2023-08-30T07:21:15;15.00;90.30
38333;DHT22;25748;46.670;14.272;2023-08-30T07:23:41;15.00;90.00
38333;DHT22;25748;46.670;14.272;2023-08-30T07:26:07;14.90;89.60
38333;DHT22;25748;46.670;14.272;2023-08-30T07:28:33;14.90;89.70
38333;DHT22;25748;46.670;14.272;2023-08-30T07:31:05;15.10;90.30
38333;DHT22;25748;46.670;14.272;2023-08-30T07:33:31;15.10;89.50
38333;DHT22;25748;46.670;14.272;2023-08-30T07:35:57;15.10;89.60
38333;DHT22;25748;46.670;14.272;2023-08-30T07:38:23;15.20;89.20
38333;DHT22;25748;46.670;14.272;2023-08-30T07:40:48;15.20;88.90
38333;DHT22;25748;46.670;14.272;2023-08-30T07:43:14;15.30;89.70
38333;DHT22;25748;46.670;14.272;2023-08-30T07:45:40;15.30;88.40
38333;DHT22;25748;46.670;14.272;2023-08-30T07:48:05;15.30;88.50
38333;DHT22;25748;46.670;14.272;2023-08-30T07:50:31;15.30;88.40
38333;DHT22;25748;46.670;14.272;2023-08-30T07:52:57;15.40;89.00
38333;DHT22;25748;46.670;14.272;2023-08-30T07:55:23;15.40;88.30
38333;DHT22;25748;46.670;14.272;2023-08-30T07:57:49;15.30;87.50
38333;DHT22;25748;46.670;14.272;2023-08-30T08:00:15;15.30;87.80
38333;DHT22;25748;46.670;14.272;2023-08-30T08:02:41;15.40;88.20
38333;DHT22;25748;46.670;14.272;2023-08-30T08:05:07;15.40;87.50
38333;DHT22;25748;46.670;14.272;2023-08-30T08:07:33;15.40;86.70
38333;DHT22;25748;46.670;14.272;2023-08-30T08:09:58;15.40;87.30
38333;DHT22;25748;46.670;14.272;2023-08-30T08:12:26;15.40;86.30
38333;DHT22;25748;46.670;14.272;2023-08-30T08:14:51;15.40;87.30
38333;DHT22;25748;46.670;14.272;2023-08-30T08:17:17;15.50;87.10
38333;DHT22;25748;46.670;14.272;2023-08-30T08:19:43;15.60;86.80
38333;DHT22;25748;46.670;14.272;2023-08-30T08:22:09;15.60;86.50
38333;DHT22;25748;46.670;14.272;2023-08-30T08:24:35;15.50;85.30
38333;DHT22;25748;46.670;14.272;2023-08-30T08:27:00;15.60;85.70
38333;DHT22;25748;46.670;14.272;2023-08-30T08:29:27;15.60;85.30
38333;DHT22;25748;46.670;14.272;2023-08-30T08:31:53;15.70;83.80
38333;DHT22;25748;46.670;14.272;2023-08-30T08:34:19;15.80;85.00
38333;DHT22;25748;46.670;14.272;2023-08-30T08:36:45;15.90;85.40
38333;DHT22;25748;46.670;14.272;2023-08-30T08:39:11;16.00;85.60
38333;DHT22;25748;46.670;14.272;2023-08-30T08:41:40;16.00;83.70
38333;DHT22;25748;46.670;14.272;2023-08-30T08:44:07;16.10;84.00
38333;DHT22;25748;46.670;14.272;2023-08-30T08:46:35;16.10;83.90
38333;DHT22;25748;46.670;14.272;2023-08-30T08:49:08;16.20;82.50
38333;DHT22;25748;46.670;14.272;2023-08-30T08:51:35;16.20;82.60
38333;DHT22;25748;46.670;14.272;2023-08-30T08:54:03;16.20;83.00
38333;DHT22;25748;46.670;14.272;2023-08-30T08:56:33;16.10;81.70
38333;DHT22;25748;46.670;14.272;2023-08-30T08:59:00;16.20;82.90
38333;DHT22;25748;46.670;14.272;2023-08-30T09:04:48;16.60;84.30
38333;DHT22;25748;46.670;14.272;2023-08-30T09:07:14;16.80;86.60
38333;DHT22;25748;46.670;14.272;2023-08-30T09:09:40;16.90;85.20
38333;DHT22;25748;46.670;14.272;2023-08-30T09:12:06;16.90;83.70
38333;DHT22;25748;46.670;14.272;2023-08-30T09:14:32;16.70;77.80
38333;DHT22;25748;46.670;14.272;2023-08-30T09:16:59;16.60;76.60
38333;DHT22;25748;46.670;14.272;2023-08-30T09:19:26;16.70;79.60
38333;DHT22;25748;46.670;14.272;2023-08-30T09:21:55;17.00;83.10
38333;DHT22;25748;46.670;14.272;2023-08-30T09:24:21;17.10;81.20
38333;DHT22;25748;46.670;14.272;2023-08-30T09:26:52;17.30;83.30
38333;DHT22;25748;46.670;14.272;2023-08-30T09:29:19;17.20;76.60
38333;DHT22;25748;46.670;14.272;2023-08-30T09:31:46;17.10;77.80
38333;DHT22;25748;46.670;14.272;2023-08-30T09:34:12;17.20;78.80
38333;DHT22;25748;46.670;14.272;2023-08-30T09:36:38;17.20;79.30
38333;DHT22;25748;46.670;14.272;2023-08-30T09:41:35;17.40;80.40
38333;DHT22;25748;46.670;14.272;2023-08-30T09:44:21;17.60;80.40
38333;DHT22;25748;46.670;14.272;2023-08-30T09:46:53;17.30;75.00
38333;DHT22;25748;46.670;14.272;2023-08-30T09:49:24;17.40;78.00
38333;DHT22;25748;46.670;14.272;2023-08-30T09:51:51;17.40;74.60
38333;DHT22;25748;46.670;14.272;2023-08-30T09:54:21;17.50;76.00
38333;DHT22;25748;46.670;14.272;2023-08-30T09:56:47;17.70;78.80
38333;DHT22;25748;46.670;14.272;2023-08-30T09:59:14;17.70;78.60
38333;DHT22;25748;46.670;14.272;2023-08-30T10:01:41;17.70;74.70
38333;DHT22;25748;46.670;14.272;2023-08-30T10:04:08;17.60;74.90
38333;DHT22;25748;46.670;14.272;2023-08-30T10:06:37;17.50;75.10
38333;DHT22;25748;46.670;14.272;2023-08-30T10:09:04;17.40;75.80
38333;DHT22;25748;46.670;14.272;2023-08-30T10:11:33;17.40;75.30
38333;DHT22;25748;46.670;14.272;2023-08-30T10:14:00;17.50;76.30
38333;DHT22;25748;46.670;14.272;2023-08-30T10:16:26;17.50;75.30
38333;DHT22;25748;46.670;14.272;2023-08-30T10:19:01;17.50;76.60
38333;DHT22;25748;46.670;14.272;2023-08-30T10:21:29;17.50;74.10
38333;DHT22;25748;46.670;14.272;2023-08-30T10:23:56;17.40;75.30
38333;DHT22;25748;46.670;14.272;2023-08-30T10:26:24;17.60;75.40
38333;DHT22;25748;46.670;14.272;2023-08-30T10:28:53;17.50;74.80
38333;DHT22;25748;46.670;14.272;2023-08-30T10:31:20;17.50;75.20
38333;DHT22;25748;46.670;14.272;2023-08-30T10:34:15;17.70;74.70
38333;DHT22;25748;46.670;14.272;2023-08-30T10:36:45;17.70;75.90
38333;DHT22;25748;46.670;14.272;2023-08-30T10:39:36;17.80;75.40
38333;DHT22;25748;46.670;14.272;2023-08-30T10:42:08;17.80;76.00
38333;DHT22;25748;46.670;14.272;2023-08-30T10:44:34;17.60;74.90
38333;DHT22;25748;46.670;14.272;2023-08-30T10:47:02;17.70;76.50
38333;DHT22;25748;46.670;14.272;2023-08-30T10:49:28;17.90;76.80
38333;DHT22;25748;46.670;14.272;2023-08-30T10:51:57;17.90;76.00
38333;DHT22;25748;46.670;14.272;2023-08-30T10:54:24;18.00;75.50
38333;DHT22;25748;46.670;14.272;2023-08-30T10:56:57;18.00;75.10
38333;DHT22;25748;46.670;14.272;2023-08-30T10:59:27;17.80;76.40
38333;DHT22;25748;46.670;14.272;2023-08-30T11:01:54;17.90;76.90
38333;DHT22;25748;46.670;14.272;2023-08-30T11:04:22;18.00;78.30
38333;DHT22;25748;46.670;14.272;2023-08-30T11:06:49;18.10;78.30
38333;DHT22;25748;46.670;14.272;2023-08-30T11:09:17;18.00;77.10
38333;DHT22;25748;46.670;14.272;2023-08-30T11:11:46;18.00;76.00
38333;DHT22;25748;46.670;14.272;2023-08-30T11:14:13;18.00;77.10
38333;DHT22;25748;46.670;14.272;2023-08-30T11:16:39;17.90;77.30
38333;DHT22;25748;46.670;14.272;2023-08-30T11:19:06;17.80;76.10
38333;DHT22;25748;46.670;14.272;2023-08-30T11:21:34;17.90;75.90
38333;DHT22;25748;46.670;14.272;2023-08-30T11:24:00;18.00;75.00
38333;DHT22;25748;46.670;14.272;2023-08-30T11:26:26;18.00;74.40
